Time;durP1;ratioP1;P1;durP2;ratioP2;P2;SDS_P1;SDS_P2;PMS_P1;PMS_P2;Temp;Humidity;BMP_temperature;BMP_pressure;BME280_temperature;BME280_humidity;BME280_pressure;Samples;Min_cycle;Max_cycle;Signal;HPM_P1;HPM_P2
2022/05/12 00:00:36;;;;;;;0.20;0.20;;;11.40;99.90;;;;;;5030786;28;20209;-90
2022/05/12 00:03:05;;;;;;;1.20;0.50;;;11.40;99.90;;;;;;5049491;28;20217;-90
2022/05/12 00:05:31;;;;;;;0.77;0.67;;;11.40;99.90;;;;;;5047755;28;20210;-90
2022/05/12 00:07:57;;;;;;;1.23;1.20;;;11.40;99.90;;;;;;5046730;28;20585;-88
2022/05/12 00:10:25;;;;;;;3.30;0.80;;;11.30;99.90;;;;;;5046128;28;20253;-89
2022/05/12 00:12:52;;;;;;;0.40;0.40;;;11.30;99.90;;;;;;5031896;28;20182;-90
2022/05/12 00:15:22;;;;;;;0.63;0.43;;;11.30;99.90;;;;;;5029947;28;20359;-94
2022/05/12 00:17:48;;;;;;;0.57;0.30;;;11.30;99.90;;;;;;5045730;28;20250;-91
2022/05/12 00:20:16;;;;;;;0.33;0.33;;;11.30;99.90;;;;;;5049201;28;20214;-93
2022/05/12 00:22:42;;;;;;;0.40;0.40;;;11.30;99.90;;;;;;5033474;28;20218;-90
2022/05/12 00:25:21;;;;;;;2.87;1.07;;;11.30;99.90;;;;;;5049510;28;20304;-93
2022/05/12 00:27:49;;;;;;;3.70;1.10;;;11.30;99.90;;;;;;5051014;28;20181;-92
2022/05/12 00:30:22;;;;;;;0.40;0.40;;;11.30;99.90;;;;;;5049202;28;20224;-89
2022/05/12 00:32:48;;;;;;;0.77;0.77;;;11.30;99.90;;;;;;5049692;28;20222;-91
2022/05/12 00:35:17;;;;;;;12.30;1.13;;;11.30;99.90;;;;;;5050010;28;20249;-91
2022/05/12 00:37:51;;;;;;;0.43;0.43;;;11.40;99.90;;;;;;5066616;28;20217;-93
2022/05/12 00:40:17;;;;;;;1.70;0.53;;;11.40;99.90;;;;;;5048574;28;20206;-93
2022/05/12 00:43:04;;;;;;;1.50;0.60;;;11.40;99.90;;;;;;5048817;28;20311;-94
2022/05/12 00:45:31;;;;;;;15.83;1.53;;;11.50;99.90;;;;;;5049247;28;20222;-92
2022/05/12 00:47:58;;;;;;;0.60;0.60;;;11.50;99.90;;;;;;5048469;28;20218;-90
2022/05/12 00:50:32;;;;;;;0.43;0.43;;;11.40;99.90;;;;;;5048272;28;20264;-91
2022/05/12 00:53:01;;;;;;;1.43;1.33;;;11.40;99.90;;;;;;5049541;28;20208;-90
2022/05/12 00:55:40;;;;;;;0.43;0.43;;;11.30;99.90;;;;;;5048189;28;20217;-92
2022/05/12 00:58:10;;;;;;;5.00;1.40;;;11.40;99.90;;;;;;5049931;28;20232;-90
2022/05/12 01:00:37;;;;;;;3.07;0.80;;;11.30;99.90;;;;;;5050261;28;20198;-91
2022/05/12 01:03:11;;;;;;;1.30;1.07;;;11.30;99.90;;;;;;5064941;28;20229;-92
2022/05/12 01:05:38;;;;;;;1.33;0.80;;;11.30;99.90;;;;;;5065408;28;20217;-92
2022/05/12 01:08:04;;;;;;;0.80;0.60;;;11.20;99.90;;;;;;5047584;28;20574;-91
2022/05/12 01:10:31;;;;;;;0.67;0.67;;;11.20;99.90;;;;;;5050345;28;20216;-92
2022/05/12 01:12:58;;;;;;;7.63;1.53;;;11.20;99.90;;;;;;5032013;28;20186;-92
2022/05/12 01:15:24;;;;;;;0.60;0.60;;;11.20;99.90;;;;;;5032168;28;20198;-91
2022/05/12 01:18:00;;;;;;;0.80;0.80;;;11.20;99.90;;;;;;5033881;28;20671;-91
2022/05/12 01:20:25;;;;;;;0.47;0.43;;;11.20;99.90;;;;;;5035056;28;20225;-90
2022/05/12 01:22:56;;;;;;;1.10;0.83;;;11.20;99.90;;;;;;5017636;28;20214;-90
2022/05/12 01:25:25;;;;;;;3.50;0.97;;;11.10;99.90;;;;;;5051646;28;20209;-89
2022/05/12 01:27:51;;;;;;;1.80;1.67;;;11.10;99.90;;;;;;5051274;28;20208;-91
2022/05/12 01:30:20;;;;;;;2.00;0.80;;;11.10;99.90;;;;;;5035613;28;20210;-91
2022/05/12 01:32:47;;;;;;;1.47;1.37;;;11.10;99.90;;;;;;5034770;28;20229;-91
2022/05/12 01:35:15;;;;;;;3.20;0.53;;;11.00;99.90;;;;;;5051119;28;20221;-92
2022/05/12 01:37:43;;;;;;;0.83;0.83;;;11.00;99.90;;;;;;5051842;28;20217;-90
2022/05/12 01:40:12;;;;;;;0.80;0.80;;;11.00;99.90;;;;;;5067177;28;20182;-93
2022/05/12 01:42:38;;;;;;;1.80;1.20;;;11.00;99.90;;;;;;5051079;28;20645;-91
2022/05/12 01:45:11;;;;;;;1.07;0.97;;;11.00;99.90;;;;;;5043215;28;20296;-90
2022/05/12 01:47:43;;;;;;;2.30;1.87;;;11.00;99.90;;;;;;5050350;28;20221;-92
2022/05/12 01:50:10;;;;;;;1.37;0.93;;;10.90;99.90;;;;;;5049920;28;20301;-92
2022/05/12 01:52:43;;;;;;;3.40;1.07;;;11.00;99.90;;;;;;5042091;28;20230;-91
2022/05/12 01:55:12;;;;;;;2.57;1.50;;;11.00;99.90;;;;;;5050330;28;20241;-93
2022/05/12 01:57:38;;;;;;;1.50;1.10;;;10.90;99.90;;;;;;5034443;28;20243;-93
2022/05/12 02:00:06;;;;;;;4.73;0.73;;;10.90;99.90;;;;;;5050047;28;20221;-93
2022/05/12 02:02:35;;;;;;;3.40;1.33;;;11.00;99.90;;;;;;5033405;28;20236;-92
2022/05/12 02:05:00;;;;;;;2.70;2.47;;;11.00;99.90;;;;;;5050326;28;20209;-92
2022/05/12 02:07:29;;;;;;;4.43;1.53;;;11.00;99.90;;;;;;5050135;28;20245;-90
2022/05/12 02:09:55;;;;;;;1.27;0.90;;;11.00;99.90;;;;;;5049198;28;20209;-90
2022/05/12 02:12:20;;;;;;;2.40;1.07;;;11.00;99.90;;;;;;5051366;28;20249;-90
2022/05/12 02:14:46;;;;;;;0.77;0.77;;;11.00;99.90;;;;;;5050880;28;20212;-92
2022/05/12 02:17:12;;;;;;;5.67;1.20;;;11.00;99.90;;;;;;5032945;28;20670;-91
2022/05/12 02:19:38;;;;;;;1.37;1.27;;;11.00;99.90;;;;;;5050086;28;20215;-91
2022/05/12 02:22:06;;;;;;;3.20;0.93;;;11.00;99.90;;;;;;5049485;28;20285;-92
2022/05/12 02:24:32;;;;;;;4.37;1.23;;;11.00;99.90;;;;;;5065770;28;20240;-91
2022/05/12 02:26:58;;;;;;;0.80;0.80;;;11.00;99.90;;;;;;5048494;28;20222;-91
2022/05/12 02:29:26;;;;;;;12.80;1.90;;;11.00;99.90;;;;;;5052088;28;20225;-91
2022/05/12 02:31:53;;;;;;;3.43;2.30;;;11.00;99.90;;;;;;5051034;28;20784;-91
2022/05/12 02:34:19;;;;;;;1.90;1.80;;;11.00;99.90;;;;;;5034971;28;20218;-91
2022/05/12 02:37:02;;;;;;;1.80;1.33;;;11.00;99.90;;;;;;5051698;28;20232;-92
2022/05/12 02:39:32;;;;;;;5.10;1.27;;;11.00;99.90;;;;;;5048612;28;20273;-91
2022/05/12 02:42:03;;;;;;;1.77;1.50;;;11.00;99.90;;;;;;5063162;28;20217;-90
2022/05/12 02:44:34;;;;;;;0.87;0.87;;;11.10;99.90;;;;;;5047371;28;20255;-91
2022/05/12 02:47:00;;;;;;;4.97;0.93;;;11.10;99.90;;;;;;5047277;28;20205;-90
2022/05/12 02:49:29;;;;;;;1.00;1.00;;;11.10;99.90;;;;;;5048116;28;20666;-92
2022/05/12 02:51:55;;;;;;;0.83;0.70;;;11.10;99.90;;;;;;5030738;28;20474;-92
2022/05/12 02:54:21;;;;;;;3.13;1.20;;;11.10;99.90;;;;;;5049226;28;20223;-89
2022/05/12 02:56:49;;;;;;;1.43;1.33;;;11.10;99.90;;;;;;5030198;28;20244;-93
2022/05/12 02:59:15;;;;;;;5.47;1.70;;;11.10;99.90;;;;;;5048062;28;20225;-93
2022/05/12 03:01:46;;;;;;;10.37;1.77;;;11.10;99.90;;;;;;5047633;28;20214;-92
2022/05/12 03:04:14;;;;;;;1.73;1.60;;;11.10;99.90;;;;;;5050059;28;20178;-92
2022/05/12 03:06:40;;;;;;;2.80;1.73;;;11.10;99.90;;;;;;5050134;28;20533;-91
2022/05/12 03:09:06;;;;;;;2.50;1.77;;;11.10;99.90;;;;;;5048729;28;20214;-91
2022/05/12 03:11:37;;;;;;;4.47;1.33;;;11.10;99.90;;;;;;5048596;28;20233;-91
2022/05/12 03:14:03;;;;;;;3.87;2.07;;;11.10;99.90;;;;;;5049252;28;20225;-92
2022/05/12 03:16:31;;;;;;;6.07;1.57;;;11.10;99.90;;;;;;5048171;28;20229;-90
2022/05/12 03:19:00;;;;;;;2.00;1.90;;;11.10;99.90;;;;;;5048716;28;20276;-90
2022/05/12 03:21:26;;;;;;;1.70;1.03;;;11.20;99.90;;;;;;5050248;28;20192;-91
2022/05/12 03:23:54;;;;;;;2.90;1.70;;;11.10;99.90;;;;;;5054560;28;20229;-91
2022/05/12 03:26:24;;;;;;;0.83;0.83;;;11.10;99.90;;;;;;5048353;28;20214;-92
2022/05/12 03:28:50;;;;;;;10.33;1.50;;;11.10;99.90;;;;;;5047675;28;20214;-92
2022/05/12 03:31:16;;;;;;;1.07;1.00;;;11.10;99.90;;;;;;5048038;28;20262;-92
2022/05/12 03:33:46;;;;;;;1.70;1.60;;;11.10;99.90;;;;;;5033224;28;20193;-90
2022/05/12 03:36:12;;;;;;;1.20;1.10;;;11.10;99.90;;;;;;5048627;28;20224;-90
2022/05/12 03:38:41;;;;;;;2.47;1.43;;;11.20;99.90;;;;;;5048490;28;20221;-90
2022/05/12 03:41:09;;;;;;;3.87;2.17;;;11.20;99.90;;;;;;5049640;28;20305;-92
2022/05/12 03:46:22;;;;;;;3.07;1.83;;;11.20;99.90;;;;;;5051132;28;20560;-89
2022/05/12 03:48:47;;;;;;;3.63;1.83;;;11.10;99.90;;;;;;5054109;28;20639;-91
2022/05/12 03:51:23;;;;;;;5.07;2.17;;;11.10;99.90;;;;;;5049499;28;20264;-90
2022/05/12 03:53:48;;;;;;;3.10;1.17;;;11.20;99.90;;;;;;5050605;28;20217;-92
2022/05/12 03:56:17;;;;;;;1.10;1.00;;;11.20;99.90;;;;;;5054114;28;20252;-91
2022/05/12 03:58:49;;;;;;;8.17;1.57;;;11.30;99.90;;;;;;5052073;28;20244;-92
2022/05/12 04:01:17;;;;;;;2.17;1.77;;;11.30;99.90;;;;;;5035312;28;20224;-93
2022/05/12 04:03:52;;;;;;;1.77;1.37;;;11.30;99.90;;;;;;5053582;28;20182;-92
2022/05/12 04:06:18;;;;;;;1.70;1.60;;;11.40;99.90;;;;;;5052476;28;20780;-92
2022/05/12 04:09:12;;;;;;;3.97;1.87;;;11.40;99.90;;;;;;5053475;28;20233;-94
2022/05/12 04:11:37;;;;;;;3.03;1.93;;;11.40;99.90;;;;;;5050704;28;20997;-93
2022/05/12 04:14:06;;;;;;;3.33;1.43;;;11.40;99.90;;;;;;5053033;28;20292;-93
2022/05/12 04:16:52;;;;;;;0.97;0.97;;;11.40;99.90;;;;;;5031333;28;20213;-90
2022/05/12 04:19:18;;;;;;;1.30;1.20;;;11.40;99.90;;;;;;5019350;28;20213;-92
2022/05/12 04:21:49;;;;;;;1.83;1.30;;;11.50;99.90;;;;;;5052270;28;20194;-94
2022/05/12 04:24:20;;;;;;;7.77;2.03;;;11.40;99.90;;;;;;5036304;28;20294;-94
2022/05/12 04:26:47;;;;;;;1.83;1.63;;;11.50;99.90;;;;;;5050807;28;20259;-94
2022/05/12 04:29:15;;;;;;;1.40;1.30;;;11.50;99.90;;;;;;5050373;28;20304;-91
2022/05/12 04:31:44;;;;;;;5.40;1.63;;;11.60;99.90;;;;;;5033933;28;20320;-91
2022/05/12 04:36:54;;;;;;;1.80;1.20;;;11.70;99.90;;;;;;5053938;28;20209;-93
2022/05/12 04:39:22;;;;;;;4.80;1.43;;;11.70;99.90;;;;;;5071783;28;20267;-93
2022/05/12 04:41:48;;;;;;;1.17;1.07;;;11.70;99.90;;;;;;5036141;28;20702;-96
2022/05/12 04:44:19;;;;;;;3.77;1.57;;;11.80;99.90;;;;;;5054064;28;20225;-94
2022/05/12 04:46:45;;;;;;;9.47;1.23;;;11.80;99.90;;;;;;5051725;28;20225;-94
2022/05/12 04:49:16;;;;;;;7.67;1.80;;;11.90;99.90;;;;;;5027119;28;22556;-95
2022/05/12 04:51:42;;;;;;;1.37;0.90;;;11.90;99.90;;;;;;5033948;28;20775;-93
2022/05/12 04:54:12;;;;;;;1.57;1.07;;;11.90;99.90;;;;;;5067164;28;20205;-94
2022/05/12 04:56:48;;;;;;;2.97;1.67;;;12.00;99.90;;;;;;5042932;28;20542;-95
2022/05/12 04:59:19;;;;;;;2.40;1.47;;;12.00;99.90;;;;;;5050518;28;20659;-95
2022/05/12 05:01:53;;;;;;;1.23;1.17;;;12.10;99.90;;;;;;5050274;28;20775;-94
2022/05/12 05:04:19;;;;;;;1.77;1.07;;;12.20;99.90;;;;;;5051984;28;20222;-94
2022/05/12 05:06:45;;;;;;;5.00;1.07;;;12.30;99.90;;;;;;5047777;28;20238;-93
2022/05/12 05:09:19;;;;;;;2.17;1.77;;;12.40;99.90;;;;;;5047352;28;20197;-93
2022/05/12 05:11:55;;;;;;;0.60;0.60;;;12.50;99.90;;;;;;5047044;28;20807;-94
2022/05/12 05:14:26;;;;;;;4.83;1.73;;;12.70;99.90;;;;;;5047004;28;20221;-94
2022/05/12 05:16:55;;;;;;;1.80;1.53;;;13.40;99.90;;;;;;5046852;28;20518;-94
2022/05/12 05:19:21;;;;;;;2.17;2.07;;;15.10;99.90;;;;;;5047819;28;20220;-93
2022/05/12 05:21:47;;;;;;;0.83;0.83;;;16.70;99.90;;;;;;5047735;28;20170;-94
2022/05/12 05:24:13;;;;;;;1.43;1.33;;;17.90;99.90;;;;;;5062682;28;20222;-94
2022/05/12 05:26:39;;;;;;;3.43;1.27;;;19.60;99.90;;;;;;5028803;28;20214;-93
2022/05/12 05:29:04;;;;;;;5.60;1.60;;;19.10;99.90;;;;;;5030729;28;20232;-92
2022/05/12 05:31:30;;;;;;;3.63;0.97;;;19.20;99.90;;;;;;5038255;28;20574;-94
2022/05/12 05:33:59;;;;;;;3.67;1.10;;;20.00;99.90;;;;;;5039175;28;20186;-94
2022/05/12 05:36:33;;;;;;;4.80;1.30;;;22.20;99.90;;;;;;5048339;28;20178;-94
2022/05/12 05:39:01;;;;;;;3.27;1.60;;;23.90;99.90;;;;;;5047496;28;20214;-92
2022/05/12 05:41:30;;;;;;;2.07;1.90;;;23.90;99.90;;;;;;5047577;28;20217;-94
2022/05/12 05:43:57;;;;;;;2.37;1.13;;;23.10;99.90;;;;;;5063739;28;20209;-95
2022/05/12 05:46:25;;;;;;;2.23;1.10;;;22.50;99.90;;;;;;5048365;28;20214;-95
2022/05/12 05:48:55;;;;;;;3.13;1.63;;;23.20;99.90;;;;;;5032234;28;20186;-93
2022/05/12 05:54:07;;;;;;;5.20;1.17;;;21.60;99.90;;;;;;5047917;28;20268;-92
2022/05/12 05:56:33;;;;;;;3.07;1.03;;;21.50;99.90;;;;;;5046391;28;20233;-94
2022/05/12 05:58:59;;;;;;;2.17;1.10;;;21.50;99.90;;;;;;5029771;28;20435;-91
2022/05/12 06:01:28;;;;;;;6.57;1.60;;;21.10;99.90;;;;;;5030996;28;20210;-95
2022/05/12 06:03:58;;;;;;;5.17;1.30;;;22.00;99.90;;;;;;5048896;28;20249;-94
2022/05/12 06:06:34;;;;;;;5.67;1.20;;;22.00;99.90;;;;;;5048897;28;20237;-94
2022/05/12 06:09:03;;;;;;;4.07;1.00;;;21.80;99.90;;;;;;5048627;28;20209;-93
2022/05/12 06:11:36;;;;;;;2.83;1.00;;;20.90;99.90;;;;;;5046607;28;20226;-93
2022/05/12 06:14:01;;;;;;;2.53;0.80;;;21.40;99.90;;;;;;5046200;28;20224;-93
2022/05/12 06:16:27;;;;;;;5.33;1.70;;;20.50;99.90;;;;;;5045939;28;20218;-94
2022/05/12 06:18:53;;;;;;;4.30;1.37;;;20.40;99.90;;;;;;5046862;28;20198;-93
2022/05/12 06:21:21;;;;;;;9.93;1.30;;;21.50;99.90;;;;;;5045543;28;20671;-95
2022/05/12 06:23:47;;;;;;;3.80;1.10;;;21.10;99.90;;;;;;5044901;28;20228;-93
2022/05/12 06:26:14;;;;;;;2.20;1.10;;;21.70;99.90;;;;;;5045614;28;20739;-93
2022/05/12 06:28:45;;;;;;;5.97;1.40;;;21.80;99.90;;;;;;5046469;28;20210;-94
2022/05/12 06:31:15;;;;;;;2.63;0.90;;;22.00;99.90;;;;;;5047402;28;20210;-94
2022/05/12 06:33:41;;;;;;;4.40;1.17;;;20.50;99.90;;;;;;5048624;28;20181;-93
2022/05/12 06:36:08;;;;;;;3.30;1.17;;;21.20;99.90;;;;;;5048321;28;20241;-95
2022/05/12 06:38:38;;;;;;;1.10;0.90;;;21.50;99.90;;;;;;5046721;28;20291;-93
2022/05/12 06:41:04;;;;;;;4.93;1.17;;;20.40;99.90;;;;;;5046014;28;20236;-93
2022/05/12 06:43:30;;;;;;;2.87;1.50;;;20.20;99.90;;;;;;5061954;28;20738;-92
2022/05/12 06:45:56;;;;;;;2.07;1.70;;;20.50;99.90;;;;;;5027909;28;20185;-93
2022/05/12 06:48:24;;;;;;;1.13;0.80;;;20.50;99.90;;;;;;5045518;28;20236;-93
2022/05/12 06:50:49;;;;;;;7.00;1.53;;;21.00;99.90;;;;;;5046629;28;20214;-93
2022/05/12 06:53:16;;;;;;;2.03;1.17;;;21.00;99.90;;;;;;5044410;28;20217;-94
2022/05/12 06:55:42;;;;;;;2.27;1.40;;;22.10;99.90;;;;;;5045621;28;20225;-92
2022/05/12 06:58:11;;;;;;;1.70;1.03;;;21.10;99.90;;;;;;5044867;28;20272;-92
2022/05/12 07:00:37;;;;;;;4.03;1.13;;;20.70;99.90;;;;;;5046138;28;20504;-91
2022/05/12 07:03:04;;;;;;;2.20;0.80;;;20.70;99.90;;;;;;5046022;28;20743;-93
2022/05/12 07:05:32;;;;;;;3.47;1.23;;;21.30;99.90;;;;;;5046529;28;20224;-94
2022/05/12 07:07:59;;;;;;;1.67;1.50;;;21.20;99.90;;;;;;5005416;28;20229;-94
2022/05/12 07:10:25;;;;;;;3.42;1.48;;;20.90;99.90;;;;;;5045493;28;20905;-91
2022/05/12 07:12:52;;;;;;;1.80;1.20;;;21.80;99.90;;;;;;5045136;28;20658;-93
2022/05/12 07:15:18;;;;;;;1.42;1.13;;;22.00;99.90;;;;;;5045151;28;20253;-91
2022/05/12 07:17:44;;;;;;;2.92;0.90;;;21.40;99.90;;;;;;5045092;28;20249;-92
2022/05/12 07:28:27;;;;;;;4.05;1.10;;;22.60;99.90;;;;;;5045665;28;20250;-92
2022/05/12 07:31:02;;;;;;;4.05;1.33;;;23.20;99.90;;;;;;5045956;28;20627;-94
2022/05/12 07:33:31;;;;;;;4.00;1.40;;;23.70;99.90;;;;;;5046455;28;20220;-94
2022/05/12 07:35:58;;;;;;;1.42;1.13;;;23.50;99.90;;;;;;5047262;28;20213;-92
2022/05/12 07:38:24;;;;;;;3.58;1.52;;;23.40;99.90;;;;;;5027019;28;20218;-91
2022/05/12 07:40:50;;;;;;;3.45;0.90;;;22.80;99.90;;;;;;5044831;28;20225;-92
2022/05/12 07:43:16;;;;;;;6.65;1.13;;;22.10;99.90;;;;;;5027559;28;20209;-93
2022/05/12 07:45:41;;;;;;;2.03;1.00;;;22.90;99.90;;;;;;5029760;28;20193;-94
2022/05/12 07:48:07;;;;;;;2.15;1.00;;;23.30;99.90;;;;;;5029608;28;20222;-93
2022/05/12 07:50:33;;;;;;;5.43;1.23;;;23.30;99.90;;;;;;5029048;28;20247;-91
2022/05/12 07:52:59;;;;;;;4.63;1.20;;;23.00;99.90;;;;;;5027992;28;20241;-92
2022/05/12 07:55:24;;;;;;;4.60;1.10;;;23.30;99.90;;;;;;5045482;28;20690;-93
2022/05/12 07:57:51;;;;;;;2.63;1.65;;;22.90;99.90;;;;;;5029588;28;20181;-93
2022/05/12 08:00:17;;;;;;;3.83;1.30;;;21.60;99.90;;;;;;5045215;28;20206;-94
2022/05/12 08:02:44;;;;;;;4.00;1.50;;;22.80;99.90;;;;;;5028997;28;20323;-92
2022/05/12 08:05:10;;;;;;;4.35;1.10;;;23.70;99.90;;;;;;5028228;28;20698;-91
2022/05/12 08:07:35;;;;;;;3.15;0.75;;;22.70;99.90;;;;;;5045454;28;20213;-91
2022/05/12 08:10:02;;;;;;;2.65;1.00;;;21.00;99.90;;;;;;5027254;28;20553;-92
2022/05/12 08:12:29;;;;;;;2.88;1.45;;;21.90;99.90;;;;;;5043812;28;20263;-92
2022/05/12 08:14:55;;;;;;;5.95;1.45;;;21.80;99.90;;;;;;5044352;28;20343;-92
2022/05/12 08:17:21;;;;;;;4.28;1.35;;;23.70;99.90;;;;;;5011251;28;20328;-90
2022/05/12 08:19:46;;;;;;;4.22;1.60;;;23.00;99.90;;;;;;5028017;28;20305;-92
2022/05/12 08:22:12;;;;;;;2.67;0.98;;;22.40;99.90;;;;;;5012358;28;20248;-93
2022/05/12 08:24:38;;;;;;;3.00;1.38;;;22.70;99.90;;;;;;5046085;28;20185;-92
2022/05/12 08:27:04;;;;;;;4.00;1.20;;;23.20;99.90;;;;;;5010858;28;20225;-93
2022/05/12 08:29:30;;;;;;;4.20;1.55;;;23.10;99.90;;;;;;5028317;28;20221;-91
2022/05/12 08:31:55;;;;;;;3.28;2.00;;;22.60;99.90;;;;;;5047492;28;20230;-93
2022/05/12 08:34:21;;;;;;;4.13;1.25;;;22.40;99.90;;;;;;5046378;28;20209;-92
2022/05/12 08:36:49;;;;;;;4.82;1.50;;;22.90;99.90;;;;;;5027433;28;20262;-89
2022/05/12 08:39:16;;;;;;;3.38;1.67;;;24.90;99.90;;;;;;5043965;28;20240;-91
2022/05/12 08:41:42;;;;;;;5.32;1.42;;;24.60;99.90;;;;;;5043899;28;20214;-89
2022/05/12 08:44:19;;;;;;;2.50;1.45;;;24.50;99.90;;;;;;5045515;28;20222;-91
2022/05/12 08:46:47;;;;;;;2.53;1.20;;;25.70;99.90;;;;;;5048176;28;20213;-90
2022/05/12 08:49:21;;;;;;;1.60;1.10;;;25.80;99.90;;;;;;5044796;28;20197;-93
2022/05/12 08:51:51;;;;;;;2.40;1.25;;;23.90;99.90;;;;;;5048665;28;20237;-91
2022/05/12 08:54:22;;;;;;;1.45;1.08;;;22.80;99.90;;;;;;5046911;28;20218;-90
2022/05/12 08:56:54;;;;;;;6.25;1.25;;;21.50;99.90;;;;;;5046405;28;20241;-91
2022/05/12 08:59:20;;;;;;;6.22;1.67;;;20.70;99.90;;;;;;5047421;28;20671;-90
2022/05/12 09:02:15;;;;;;;2.17;1.10;;;22.30;99.90;;;;;;5013787;28;20215;-92
2022/05/12 09:04:59;;;;;;;6.85;1.15;;;23.50;99.90;;;;;;5017413;28;20221;-92
2022/05/12 09:07:49;;;;;;;2.17;1.10;;;22.80;99.90;;;;;;5047520;28;20263;-92
2022/05/12 09:10:39;;;;;;;2.65;1.08;;;22.40;99.90;;;;;;5047686;28;20280;-92
2022/05/12 09:13:26;;;;;;;4.03;1.60;;;23.40;99.90;;;;;;5046627;28;20198;-92
2022/05/12 09:16:26;;;;;;;3.58;0.93;;;22.70;99.90;;;;;;5046746;28;20174;-89
2022/05/12 09:18:53;;;;;;;3.72;1.55;;;20.60;99.90;;;;;;5046906;28;20213;-92
2022/05/12 09:21:37;;;;;;;5.25;1.30;;;20.70;99.90;;;;;;5047188;28;20181;-91
2022/05/12 09:24:04;;;;;;;1.92;0.98;;;21.50;99.90;;;;;;5046372;28;20242;-89
2022/05/12 09:26:53;;;;;;;4.25;1.25;;;21.60;99.90;;;;;;5029960;28;20226;-87
2022/05/12 09:29:25;;;;;;;1.05;0.80;;;22.60;99.90;;;;;;5045833;28;21213;-91
2022/05/12 09:32:02;;;;;;;1.27;1.17;;;22.00;99.90;;;;;;5063284;28;20226;-91
2022/05/12 09:34:39;;;;;;;0.95;0.82;;;21.20;99.90;;;;;;5046526;28;20225;-90
2022/05/12 09:37:16;;;;;;;1.40;0.77;;;21.40;99.90;;;;;;5045705;28;20174;-92
2022/05/12 09:39:52;;;;;;;3.00;1.10;;;21.60;99.90;;;;;;5045907;28;20190;-90
2022/05/12 09:42:27;;;;;;;1.10;0.90;;;21.10;99.90;;;;;;5045983;28;20209;-91
2022/05/12 09:45:06;;;;;;;2.20;1.20;;;21.30;99.90;;;;;;5044890;28;20685;-91
2022/05/12 09:47:33;;;;;;;3.78;1.17;;;21.90;99.90;;;;;;5046370;28;20212;-91
2022/05/12 09:50:25;;;;;;;3.78;1.00;;;21.60;99.90;;;;;;5046106;28;20234;-91
2022/05/12 09:52:53;;;;;;;1.67;1.10;;;22.50;99.90;;;;;;5046371;28;20237;-91
2022/05/12 09:55:21;;;;;;;0.83;0.80;;;21.80;99.90;;;;;;5047072;28;20236;-92
2022/05/12 09:58:15;;;;;;;1.83;1.30;;;21.30;99.90;;;;;;5045751;28;20190;-93
2022/05/12 10:00:49;;;;;;;2.93;1.17;;;21.40;99.90;;;;;;5046901;28;20210;-92
2022/05/12 10:09:23;;;;;;;3.92;1.10;;;22.10;99.90;;;;;;5046282;28;20769;-92
2022/05/12 10:12:02;;;;;;;4.20;1.37;;;21.40;99.90;;;;;;5046354;28;20226;-89
2022/05/12 10:14:50;;;;;;;2.47;1.05;;;22.60;99.90;;;;;;5044891;28;20209;-91
2022/05/12 10:17:33;;;;;;;3.05;1.30;;;21.50;99.90;;;;;;5061404;28;20209;-90
2022/05/12 10:20:07;;;;;;;6.13;1.20;;;22.20;99.90;;;;;;5045246;28;20274;-91
2022/05/12 10:22:43;;;;;;;3.00;1.08;;;21.70;99.90;;;;;;5046956;28;20589;-89
2022/05/12 10:25:37;;;;;;;3.88;1.10;;;21.20;99.90;;;;;;5045718;28;20185;-90
2022/05/12 10:28:23;;;;;;;1.93;1.20;;;19.80;99.90;;;;;;5045618;28;20220;-90
2022/05/12 10:30:59;;;;;;;5.53;1.17;;;20.10;99.90;;;;;;5044956;28;20196;-91
2022/05/12 10:33:29;;;;;;;1.60;1.50;;;20.50;99.90;;;;;;5045122;28;20214;-89
2022/05/12 10:36:19;;;;;;;1.43;0.90;;;20.30;99.90;;;;;;5045428;28;20782;-91
2022/05/12 10:38:58;;;;;;;2.57;1.17;;;20.30;99.90;;;;;;5046783;28;20210;-90
2022/05/12 10:41:30;;;;;;;3.30;1.33;;;20.30;99.90;;;;;;5045871;28;20229;-89
2022/05/12 10:44:17;;;;;;;3.17;1.00;;;20.10;99.90;;;;;;5044373;28;20301;-90
2022/05/12 10:47:04;;;;;;;3.43;1.70;;;20.90;99.90;;;;;;5045349;28;20221;-90
2022/05/12 10:49:40;;;;;;;4.00;1.63;;;20.30;99.90;;;;;;5061082;28;20278;-91
2022/05/12 10:52:20;;;;;;;8.47;2.10;;;19.50;99.90;;;;;;5056727;28;20430;-94
2022/05/12 10:55:21;;;;;;;1.93;1.30;;;19.60;99.90;;;;;;5045554;28;20170;-91
2022/05/12 10:58:06;;;;;;;3.90;1.37;;;19.00;99.90;;;;;;5046896;28;20241;-91
2022/05/12 11:00:42;;;;;;;1.87;1.10;;;19.70;99.90;;;;;;5044752;28;20221;-90
2022/05/12 11:03:29;;;;;;;2.53;1.67;;;19.50;99.90;;;;;;5044288;28;20306;-93
2022/05/12 11:05:59;;;;;;;3.73;1.93;;;19.70;99.90;;;;;;5044897;28;20218;-91
2022/05/12 11:08:45;;;;;;;1.90;1.33;;;19.80;99.90;;;;;;5060830;28;20320;-92
2022/05/12 11:11:26;;;;;;;4.73;1.17;;;20.10;99.90;;;;;;5060549;28;20328;-92
2022/05/12 11:14:04;;;;;;;1.43;1.00;;;20.20;99.90;;;;;;5044548;28;20217;-94
2022/05/12 11:16:40;;;;;;;1.27;1.07;;;20.20;99.90;;;;;;5044492;28;20305;-93
2022/05/12 11:19:22;;;;;;;2.63;1.80;;;20.70;99.90;;;;;;5044222;28;20214;-92
2022/05/12 11:21:55;;;;;;;3.33;1.07;;;20.80;99.90;;;;;;5044569;28;20174;-90
2022/05/12 11:24:24;;;;;;;1.27;1.13;;;20.30;99.90;;;;;;5044982;28;20209;-92
2022/05/12 11:26:56;;;;;;;1.73;1.20;;;20.50;99.90;;;;;;5043779;28;20268;-94
2022/05/12 11:29:44;;;;;;;1.23;1.10;;;20.60;99.90;;;;;;5043477;28;20683;-93
2022/05/12 11:32:39;;;;;;;1.00;0.67;;;20.40;99.90;;;;;;5052389;28;20230;-93
2022/05/12 11:35:09;;;;;;;2.67;1.43;;;19.70;99.90;;;;;;5044763;28;20266;-92
2022/05/12 11:37:38;;;;;;;1.50;0.93;;;19.80;99.90;;;;;;5044965;28;20726;-93
2022/05/12 11:40:09;;;;;;;2.20;1.00;;;19.70;99.90;;;;;;5044976;28;20190;-92
2022/05/12 11:45:48;;;;;;;1.17;0.93;;;20.10;99.90;;;;;;5045082;28;20234;-93
2022/05/12 11:48:33;;;;;;;0.90;0.87;;;19.60;99.90;;;;;;5045526;28;20221;-92
2022/05/12 11:51:13;;;;;;;1.80;1.40;;;19.10;99.90;;;;;;5044827;28;20225;-92
2022/05/12 11:53:53;;;;;;;1.53;1.43;;;18.90;99.90;;;;;;5045534;28;20225;-91
2022/05/12 11:56:45;;;;;;;3.23;1.47;;;19.00;99.90;;;;;;5043363;28;20245;-91
2022/05/12 11:59:33;;;;;;;1.10;1.00;;;18.90;99.90;;;;;;5043054;28;20678;-92
2022/05/12 12:02:03;;;;;;;1.50;1.13;;;18.90;99.90;;;;;;5044431;28;20280;-92
2022/05/12 12:04:46;;;;;;;4.50;1.37;;;19.20;99.90;;;;;;5035943;28;20214;-90
2022/05/12 12:07:32;;;;;;;2.50;1.80;;;19.00;99.90;;;;;;5033501;28;20289;-88
2022/05/12 12:10:22;;;;;;;1.43;1.03;;;18.70;99.90;;;;;;5032238;28;20166;-94
2022/05/12 12:12:58;;;;;;;3.23;1.33;;;19.00;99.90;;;;;;5044879;28;20762;-92
2022/05/12 12:15:26;;;;;;;3.80;0.90;;;19.40;99.90;;;;;;5045015;28;20213;-90
2022/05/12 12:17:55;;;;;;;3.87;1.33;;;19.40;99.90;;;;;;5048032;28;20218;-91
2022/05/12 12:20:31;;;;;;;4.20;1.53;;;19.20;99.90;;;;;;5047993;28;20278;-91
2022/05/12 12:23:25;;;;;;;0.70;0.70;;;19.20;99.90;;;;;;5048150;28;20228;-90
2022/05/12 12:26:01;;;;;;;0.50;0.50;;;19.20;99.90;;;;;;5047222;28;20222;-92
2022/05/12 12:28:52;;;;;;;0.80;0.80;;;19.10;99.90;;;;;;5047141;28;20226;-91
2022/05/12 12:31:25;;;;;;;2.33;0.90;;;18.70;99.90;;;;;;5047356;28;20225;-92
2022/05/12 12:34:03;;;;;;;1.77;0.90;;;18.80;99.90;;;;;;5049772;28;20188;-92
2022/05/12 12:36:29;;;;;;;2.30;0.80;;;18.80;99.90;;;;;;5048418;28;20221;-92
2022/05/12 12:38:54;;;;;;;0.83;0.60;;;19.00;99.90;;;;;;5047762;28;20225;-91
2022/05/12 12:41:29;;;;;;;1.13;1.03;;;18.80;99.90;;;;;;5047068;28;20627;-93
2022/05/12 12:44:04;;;;;;;0.70;0.70;;;19.00;99.90;;;;;;5047508;28;20232;-92
2022/05/12 12:46:53;;;;;;;2.57;0.90;;;18.50;99.90;;;;;;5064250;28;20205;-92
2022/05/12 12:49:24;;;;;;;1.00;0.60;;;18.50;99.90;;;;;;5031110;28;20689;-93
2022/05/12 12:51:58;;;;;;;3.87;0.70;;;18.30;99.90;;;;;;5049792;28;20210;-93
2022/05/12 12:57:25;;;;;;;2.53;1.17;;;18.40;99.90;;;;;;5047296;28;20268;-95
2022/05/12 13:00:01;;;;;;;1.80;1.13;;;18.80;99.90;;;;;;5046214;28;20228;-93
2022/05/12 13:02:40;;;;;;;0.97;0.80;;;18.80;99.90;;;;;;5046806;28;20229;-93
2022/05/12 13:05:13;;;;;;;1.10;1.10;;;18.40;99.90;;;;;;5046789;28;20256;-93
2022/05/12 13:07:41;;;;;;;0.77;0.77;;;18.60;99.90;;;;;;5046135;28;20501;-92
2022/05/12 13:10:18;;;;;;;1.20;0.90;;;18.50;99.90;;;;;;5045825;28;20208;-93
2022/05/12 13:12:58;;;;;;;2.63;1.13;;;18.40;99.90;;;;;;5047796;28;20875;-90
2022/05/12 13:15:27;;;;;;;1.07;1.07;;;18.60;99.90;;;;;;5047297;28;21070;-91
2022/05/12 13:17:58;;;;;;;2.93;1.10;;;18.00;99.90;;;;;;5064185;28;20213;-91
2022/05/12 13:20:32;;;;;;;0.67;0.67;;;18.00;99.90;;;;;;5047786;28;20248;-92
2022/05/12 13:23:05;;;;;;;1.53;0.80;;;18.10;99.90;;;;;;5063255;28;20268;-91
2022/05/12 13:25:34;;;;;;;1.03;0.90;;;18.10;99.90;;;;;;5047066;28;20220;-90
2022/05/12 13:28:01;;;;;;;6.27;1.27;;;18.30;99.90;;;;;;5045739;28;20179;-91
2022/05/12 13:30:34;;;;;;;2.97;1.40;;;18.40;99.90;;;;;;5047993;28;20228;-92
2022/05/12 13:33:21;;;;;;;3.27;1.40;;;18.30;99.90;;;;;;5045235;28;20309;-92
2022/05/12 13:36:10;;;;;;;1.33;1.00;;;18.30;99.90;;;;;;5046746;28;20276;-92